Time;durP1;ratioP1;P1;durP2;ratioP2;P2;SDS_P1;SDS_P2;PMS_P1;PMS_P2;Temp;Humidity;BMP_temperature;BMP_pressure;BME280_temperature;BME280_humidity;BME280_pressure;Samples;Min_cycle;Max_cycle;Signal;HPM_P1;HPM_P2
2022/05/25 00:00:33;;;;;;;0.40;0.10;;;;;;;17.56;69.43;99922.03;106425;1274;107944;-89
2022/05/25 00:03:05;;;;;;;0.40;0.20;;;;;;;17.48;69.52;99921.04;106284;1274;137841;-89
2022/05/25 00:05:35;;;;;;;0.40;0.10;;;;;;;17.41;69.68;99920.61;106381;1275;93848;-89
2022/05/25 00:08:13;;;;;;;0.40;0.10;;;;;;;17.32;70.11;99917.37;105987;1275;137605;-89
2022/05/25 00:10:43;;;;;;;0.40;0.10;;;;;;;17.35;70.14;99926.89;105346;1280;99436;-88
2022/05/25 00:13:12;;;;;;;0.40;0.10;;;;;;;17.40;70.15;99927.67;105582;1275;138471;-90
2022/05/25 00:16:05;;;;;;;0.40;0.10;;;;;;;17.54;69.89;99932.20;105978;1276;94317;-90
2022/05/25 00:18:35;;;;;;;0.40;0.10;;;;;;;17.65;69.63;99937.79;106271;1274;94123;-88
2022/05/25 00:21:05;;;;;;;0.40;0.10;;;;;;;17.68;69.40;99938.48;106078;1276;138991;-88
2022/05/25 00:23:34;;;;;;;0.40;0.10;;;;;;;17.74;69.52;99941.73;105875;1277;97387;-90
2022/05/25 00:26:02;;;;;;;0.40;0.10;;;;;;;17.79;69.11;99942.27;106180;1277;137362;-91
2022/05/25 00:28:33;;;;;;;0.40;0.10;;;;;;;17.87;68.93;99944.11;106943;1277;94624;-88
2022/05/25 00:31:02;;;;;;;0.40;0.10;;;;;;;17.94;68.92;99942.23;106905;1276;137284;-88
2022/05/25 00:33:30;;;;;;;0.40;0.10;;;;;;;17.96;68.72;99944.31;107210;1276;107844;-87
2022/05/25 00:35:58;;;;;;;0.40;0.10;;;;;;;17.97;68.61;99942.09;107445;1276;97054;-89
2022/05/25 00:38:27;;;;;;;0.40;0.20;;;;;;;17.72;68.90;99932.49;107455;1276;138222;-89
2022/05/25 00:40:57;;;;;;;0.40;0.10;;;;;;;17.54;69.60;99930.36;106180;1276;94126;-89
2022/05/25 00:43:42;;;;;;;0.40;0.10;;;;;;;17.36;70.22;99917.70;106164;1277;139782;-89
2022/05/25 00:46:16;;;;;;;0.40;0.10;;;;;;;17.32;70.51;99915.40;106205;1276;107442;-89
2022/05/25 00:49:13;;;;;;;0.40;0.10;;;;;;;17.42;70.41;99916.79;106231;1276;98391;-89
2022/05/25 00:51:55;;;;;;;0.40;0.10;;;;;;;17.51;70.15;99920.73;106281;1278;106780;-89
2022/05/25 00:54:38;;;;;;;0.40;0.10;;;;;;;17.59;69.90;99916.80;106124;1277;94520;-89
2022/05/25 00:57:30;;;;;;;0.40;0.10;;;;;;;17.62;69.79;99914.65;106050;1277;138843;-89
2022/05/25 01:00:11;;;;;;;0.40;0.10;;;;;;;17.60;69.71;99925.88;106190;1276;107407;-89
2022/05/25 01:02:48;;;;;;;0.40;0.20;;;;;;;17.58;69.79;99931.23;106170;1277;138562;-89
2022/05/25 01:05:34;;;;;;;0.40;0.10;;;;;;;17.63;69.79;99929.95;106148;1279;107967;-89
2022/05/25 01:08:28;;;;;;;0.40;0.10;;;;;;;17.51;69.92;99920.89;106078;1277;137158;-88
2022/05/25 01:11:30;;;;;;;0.40;0.10;;;;;;;17.43;70.33;99913.64;106079;1277;94068;-90
2022/05/25 01:14:08;;;;;;;0.40;0.10;;;;;;;17.30;70.69;99910.49;106005;1277;138466;-88
2022/05/25 01:17:00;;;;;;;0.40;0.10;;;;;;;17.20;71.08;99910.38;106356;1277;97458;-88
2022/05/25 01:20:03;;;;;;;0.40;0.10;;;;;;;17.27;71.26;99914.80;106118;1276;138537;-88
2022/05/25 01:22:39;;;;;;;0.40;0.10;;;;;;;17.29;71.05;99912.74;106373;1276;94251;-88
2022/05/25 01:25:29;;;;;;;0.40;0.10;;;;;;;17.35;71.28;99914.14;106386;1276;94132;-88
2022/05/25 01:28:10;;;;;;;0.40;0.10;;;;;;;17.48;70.73;99914.63;106179;1276;107294;-88
2022/05/25 01:30:44;;;;;;;0.40;0.10;;;;;;;17.55;70.58;99909.11;106395;1276;97941;-89
2022/05/25 01:33:39;;;;;;;0.40;0.10;;;;;;;17.67;70.47;99908.72;106430;1276;138233;-89
2022/05/25 01:36:41;;;;;;;0.40;0.10;;;;;;;17.86;69.67;99910.60;106359;1277;94179;-89
2022/05/25 01:39:16;;;;;;;0.40;0.10;;;;;;;17.87;69.60;99909.13;106185;1277;138009;-89
2022/05/25 01:42:06;;;;;;;0.40;0.10;;;;;;;17.98;69.23;99917.60;106389;1276;107441;-89
2022/05/25 01:44:41;;;;;;;0.40;0.10;;;;;;;17.89;69.02;99915.76;106308;1276;140215;-89
2022/05/25 01:47:10;;;;;;;0.40;0.10;;;;;;;17.81;69.26;99916.64;106184;1277;109088;-89
2022/05/25 01:49:45;;;;;;;0.40;0.10;;;;;;;17.71;69.49;99916.39;106303;1276;140833;-89
2022/05/25 01:52:25;;;;;;;0.40;0.10;;;;;;;17.67;69.78;99922.20;106455;1277;94620;-89
2022/05/25 01:55:02;;;;;;;0.40;0.10;;;;;;;17.62;69.82;99927.20;106089;1276;107541;-89
2022/05/25 01:57:35;;;;;;;0.40;0.10;;;;;;;17.55;70.27;99927.63;106118;1276;138822;-89
2022/05/25 02:00:06;;;;;;;0.40;0.10;;;;;;;17.70;70.29;99922.38;106370;1277;109824;-89
2022/05/25 02:05:27;;;;;;;0.40;0.10;;;;;;;17.98;69.26;99923.64;106349;1276;94219;-89
2022/05/25 02:08:07;;;;;;;0.40;0.10;;;;;;;18.09;68.60;99921.16;106285;1277;138735;-89
2022/05/25 02:11:24;;;;;;;0.40;0.10;;;;;;;17.92;68.53;99916.11;106388;1276;96046;-90
2022/05/25 02:14:00;;;;;;;0.40;0.10;;;;;;;17.63;69.23;99915.27;105925;1277;138783;-89
2022/05/25 02:17:00;;;;;;;0.40;0.10;;;;;;;17.46;69.74;99913.11;106421;1277;94237;-89
2022/05/25 02:19:52;;;;;;;0.40;0.10;;;;;;;17.38;70.37;99916.85;106047;1277;138633;-89
2022/05/25 02:22:46;;;;;;;0.40;0.10;;;;;;;17.36;70.36;99915.69;105956;1277;391268;-89
2022/05/25 02:25:24;;;;;;;0.40;0.10;;;;;;;17.30;70.61;99921.80;106351;1276;138651;-89
2022/05/25 02:28:06;;;;;;;0.40;0.10;;;;;;;17.30;70.67;99927.91;106090;1277;107746;-89
2022/05/25 02:30:59;;;;;;;0.40;0.10;;;;;;;17.29;70.85;99923.48;106034;1277;94434;-86
2022/05/25 02:33:51;;;;;;;0.40;0.10;;;;;;;17.28;71.00;99930.93;106106;1276;94212;-89
2022/05/25 02:36:23;;;;;;;0.40;0.10;;;;;;;17.40;71.15;99936.64;105855;1277;108855;-89
2022/05/25 02:38:54;;;;;;;0.40;0.10;;;;;;;17.55;70.74;99940.04;106173;1276;137221;-90
2022/05/25 02:41:36;;;;;;;0.40;0.10;;;;;;;17.72;70.14;99942.15;106247;1277;107717;-90
2022/05/25 02:44:04;;;;;;;0.40;0.10;;;;;;;17.77;69.68;99943.15;106027;1276;139232;-91
2022/05/25 02:46:35;;;;;;;0.40;0.10;;;;;;;17.82;69.72;99950.72;106426;1277;94728;-88
2022/05/25 02:49:05;;;;;;;0.40;0.10;;;;;;;17.89;69.19;99956.38;106380;1277;107347;-88
2022/05/25 02:51:39;;;;;;;0.40;0.10;;;;;;;17.90;69.23;99953.08;106232;1277;136628;-89
2022/05/25 02:54:11;;;;;;;0.40;0.10;;;;;;;17.85;68.98;99952.30;106238;1277;108782;-88
2022/05/25 02:56:40;;;;;;;0.40;0.10;;;;;;;17.84;69.24;99959.21;106365;1277;137480;-90
2022/05/25 02:59:11;;;;;;;0.40;0.10;;;;;;;17.89;69.42;99957.48;106444;1276;94097;-90
2022/05/25 03:02:02;;;;;;;0.40;0.10;;;;;;;18.02;68.91;99957.52;106361;1276;136974;-90
2022/05/25 03:05:12;;;;;;;0.40;0.10;;;;;;;17.82;68.96;99961.33;106473;1276;99469;-90
2022/05/25 03:08:18;;;;;;;0.40;0.10;;;;;;;17.66;69.50;99961.23;106206;1277;137348;-89
2022/05/25 03:10:49;;;;;;;0.40;0.10;;;;;;;17.66;70.31;99963.23;106525;1276;94286;-88
2022/05/25 03:13:41;;;;;;;0.40;0.10;;;;;;;17.96;69.75;99957.21;106059;1277;139754;-89
2022/05/25 03:16:15;;;;;;;0.40;0.10;;;;;;;18.12;69.16;99957.83;106179;1277;107509;-89
2022/05/25 03:19:04;;;;;;;0.40;0.10;;;;;;;18.09;68.63;99959.45;106356;1277;97026;-89
2022/05/25 03:21:34;;;;;;;0.40;0.10;;;;;;;17.99;69.11;99959.70;106225;1277;138483;-89
2022/05/25 03:24:03;;;;;;;0.40;0.10;;;;;;;18.11;69.12;99960.94;106299;1277;94193;-89
2022/05/25 03:26:31;;;;;;;0.40;0.10;;;;;;;18.16;68.95;99966.66;106264;1276;136779;-88
2022/05/25 03:29:20;;;;;;;0.40;0.10;;;;;;;18.27;68.58;99959.53;106238;1276;106075;-90
2022/05/25 03:32:11;;;;;;;0.40;0.10;;;;;;;18.37;68.04;99962.84;106233;1276;138854;-89
2022/05/25 03:34:42;;;;;;;0.40;0.10;;;;;;;18.39;67.88;99966.66;106328;1277;108496;-89
2022/05/25 03:37:10;;;;;;;0.40;0.10;;;;;;;18.41;67.85;99970.12;106293;1277;94427;-89
2022/05/25 03:39:40;;;;;;;0.40;0.10;;;;;;;18.50;67.84;99972.77;106247;1276;137408;-89
2022/05/25 03:42:16;;;;;;;0.40;0.10;;;;;;;18.52;67.64;99973.66;106336;1277;106662;-90
2022/05/25 03:44:46;;;;;;;0.40;0.10;;;;;;;18.49;67.58;99972.09;106241;1276;138576;-89
2022/05/25 03:47:19;;;;;;;0.40;0.10;;;;;;;18.50;67.91;99972.21;106288;1275;108786;-89
2022/05/25 03:50:10;;;;;;;0.40;0.10;;;;;;;18.41;67.71;99969.05;106177;1276;138308;-89
2022/05/25 03:52:41;;;;;;;0.40;0.10;;;;;;;18.41;68.05;99968.52;106459;1277;94225;-89
2022/05/25 03:55:10;;;;;;;0.40;0.10;;;;;;;18.47;67.75;99972.61;106328;1277;107998;-89
2022/05/25 03:57:39;;;;;;;0.40;0.10;;;;;;;18.49;67.89;99968.54;106187;1277;139080;-90
2022/05/25 04:00:11;;;;;;;0.40;0.10;;;;;;;18.51;67.75;99968.35;106293;1277;107953;-88
2022/05/25 04:02:46;;;;;;;0.40;0.10;;;;;;;18.52;67.74;99973.19;106203;1277;138406;-88
2022/05/25 04:05:20;;;;;;;0.40;0.10;;;;;;;18.51;67.79;99977.18;106141;1277;94315;-90
2022/05/25 04:07:51;;;;;;;0.40;0.10;;;;;;;18.59;67.77;99976.84;106156;1276;137352;-89
2022/05/25 04:10:19;;;;;;;0.40;0.10;;;;;;;18.69;67.62;99977.64;106078;1277;97674;-90
2022/05/25 04:12:58;;;;;;;0.40;0.10;;;;;;;18.76;67.41;99977.18;106324;1276;107894;-89
2022/05/25 04:15:48;;;;;;;0.40;0.10;;;;;;;18.58;67.64;99975.67;106087;1276;136711;-90
2022/05/25 04:18:17;;;;;;;0.40;0.10;;;;;;;18.39;68.04;99977.42;106254;1276;94244;-89
2022/05/25 04:21:28;;;;;;;0.40;0.10;;;;;;;18.38;68.79;99976.97;105885;1277;138246;-89
2022/05/25 04:24:02;;;;;;;0.40;0.10;;;;;;;18.47;68.85;99980.88;106141;1275;98384;-89
2022/05/25 04:26:31;;;;;;;0.40;0.10;;;;;;;18.63;68.62;99981.21;105983;1277;137611;-89
2022/05/25 04:29:00;;;;;;;0.40;0.10;;;;;;;18.70;68.43;99980.77;106131;1277;95000;-89
2022/05/25 04:31:50;;;;;;;0.40;0.10;;;;;;;18.77;68.20;99981.08;106324;1276;94514;-89
2022/05/25 04:34:19;;;;;;;0.40;0.10;;;;;;;18.81;68.02;99981.14;106275;1277;106544;-90
2022/05/25 04:36:48;;;;;;;0.40;0.10;;;;;;;18.87;67.84;99977.69;106125;1277;97134;-90
2022/05/25 04:39:19;;;;;;;0.40;0.10;;;;;;;18.84;68.04;99971.91;106064;1277;137446;-89
2022/05/25 04:42:10;;;;;;;0.40;0.10;;;;;;;18.90;67.67;99969.02;106180;1277;94175;-89
2022/05/25 04:45:00;;;;;;;0.40;0.10;;;;;;;18.89;68.03;99969.48;106038;1278;138452;-92
2022/05/25 04:47:34;;;;;;;0.40;0.10;;;;;;;18.93;67.83;99966.34;105948;1277;106790;-88
2022/05/25 04:50:08;;;;;;;0.40;0.10;;;;;;;18.86;68.01;99965.73;105943;1277;137419;-90
2022/05/25 04:52:37;;;;;;;0.40;0.10;;;;;;;18.90;67.71;99965.10;105924;1277;107886;-89
2022/05/25 04:57:19;;;;;;;0.40;0.10;;;;;;;18.92;67.86;99970.34;106085;1277;94663;-88
2022/05/25 04:58:46;;;;;;;0.40;0.10;;;;;;;18.94;67.92;99977.26;106010;1278;94156;-88
2022/05/25 05:01:19;;;;;;;0.40;0.10;;;;;;;19.00;67.69;99980.93;106085;1276;107273;-89
2022/05/25 05:04:13;;;;;;;0.40;0.10;;;;;;;19.07;67.94;99978.00;106184;1276;98390;-89
2022/05/25 05:06:44;;;;;;;0.40;0.10;;;;;;;19.23;67.47;99980.11;105979;1277;107786;-89
2022/05/25 05:09:41;;;;;;;0.40;0.10;;;;;;;19.34;67.43;99975.39;105823;1277;137966;-88
2022/05/25 05:12:14;;;;;;;0.40;0.10;;;;;;;19.51;66.92;99981.38;105989;1277;94305;-90
2022/05/25 05:14:44;;;;;;;0.40;0.10;;;;;;;19.60;67.00;99981.67;105752;1277;138446;-91
2022/05/25 05:17:18;;;;;;;0.40;0.10;;;;;;;19.65;66.86;99978.66;105947;1277;96662;-91
2022/05/25 05:20:07;;;;;;;0.40;0.10;;;;;;;19.72;66.74;99979.77;105787;1277;138061;-90
2022/05/25 05:22:36;;;;;;;0.40;0.10;;;;;;;19.65;66.48;99975.95;105869;1277;94739;-91
2022/05/25 05:25:07;;;;;;;0.40;0.10;;;;;;;19.74;66.72;99981.22;105900;1278;94242;-88
2022/05/25 05:27:36;;;;;;;0.40;0.10;;;;;;;19.84;66.36;99985.42;105849;1277;138261;-90
2022/05/25 05:30:15;;;;;;;0.40;0.10;;;;;;;19.84;66.30;99990.09;106008;1276;99646;-90
2022/05/25 05:33:04;;;;;;;0.40;0.10;;;;;;;19.72;66.53;99990.70;105743;1277;137854;-89
2022/05/25 05:35:41;;;;;;;0.40;0.10;;;;;;;19.62;66.91;99989.14;105704;1276;94343;-90
2022/05/25 05:38:13;;;;;;;0.40;0.10;;;;;;;19.59;67.04;99982.87;105552;1278;138492;-90
2022/05/25 05:44:24;;;;;;;0.40;0.10;;;;;;;19.72;67.22;99986.27;105781;1274;138463;-90
2022/05/25 05:46:59;;;;;;;0.40;0.10;;;;;;;19.86;66.72;99989.77;105840;1275;108889;-90
2022/05/25 05:49:48;;;;;;;0.40;0.10;;;;;;;19.88;66.47;99990.55;105661;1278;138955;-89
2022/05/25 05:52:48;;;;;;;0.40;0.10;;;;;;;19.89;66.80;99995.89;105752;1277;94222;-89
2022/05/25 05:55:47;;;;;;;0.40;0.10;;;;;;;19.93;66.80;99997.55;105810;1278;107862;-86
2022/05/25 05:58:38;;;;;;;0.40;0.10;;;;;;;19.93;66.68;99999.76;105435;1277;98869;-91
2022/05/25 06:01:22;;;;;;;0.40;0.10;;;;;;;19.95;66.83;100003.05;105550;1276;108401;-91
2022/05/25 06:04:22;;;;;;;0.40;0.10;;;;;;;20.05;66.69;100003.54;103314;1281;94323;-65
2022/05/25 06:06:50;;;;;;;0.40;0.10;;;;;;;20.13;66.69;100008.25;103423;1281;94345;-65
2022/05/25 06:09:18;;;;;;;0.40;0.10;;;;;;;20.15;66.64;100009.34;103460;1281;138639;-65
2022/05/25 06:11:46;;;;;;;0.40;0.10;;;;;;;20.06;66.44;100006.35;103483;1280;99487;-63
2022/05/25 06:14:14;;;;;;;0.40;0.10;;;;;;;20.05;66.69;100003.54;103335;1281;138993;-66
2022/05/25 06:19:30;;;;;;;0.40;0.10;;;;;;;20.15;66.69;100004.11;103409;1281;94490;-66
2022/05/25 06:22:12;;;;;;;0.40;0.10;;;;;;;20.17;66.61;99999.95;102838;1281;138364;-64
2022/05/25 06:24:44;;;;;;;0.40;0.10;;;;;;;20.28;66.44;99997.76;103265;1281;99389;-64
2022/05/25 06:27:12;;;;;;;0.40;0.10;;;;;;;20.35;66.11;99993.82;103501;1281;138313;-63
2022/05/25 06:29:43;;;;;;;0.40;0.10;;;;;;;20.39;66.27;99989.94;103377;1281;94345;-64
2022/05/25 06:32:14;;;;;;;0.40;0.10;;;;;;;20.46;66.31;99983.80;103063;1281;138512;-65
2022/05/25 06:34:47;;;;;;;0.40;0.10;;;;;;;20.59;65.88;99987.14;103260;1281;108339;-65
2022/05/25 06:37:24;;;;;;;0.40;0.10;;;;;;;20.75;65.91;99985.83;103607;1281;99423;-65
2022/05/25 06:39:52;;;;;;;0.40;0.10;;;;;;;20.96;65.59;99983.15;103054;1281;137920;-65
2022/05/25 06:42:21;;;;;;;0.40;0.10;;;;;;;21.13;65.28;99982.20;103995;1281;94431;-64
2022/05/25 06:44:57;;;;;;;0.40;0.10;;;;;;;21.08;65.11;99984.96;103795;1281;139081;-65
2022/05/25 06:47:25;;;;;;;0.40;0.10;;;;;;;21.11;64.29;99980.58;103315;1281;108365;-65
2022/05/25 06:49:54;;;;;;;0.40;0.10;;;;;;;21.16;64.36;99977.27;103145;1281;138045;-65
2022/05/25 06:52:23;;;;;;;0.40;0.10;;;;;;;21.27;64.15;99981.55;103729;1281;109160;-65
2022/05/25 06:54:55;;;;;;;0.40;0.10;;;;;;;21.30;64.14;99981.45;103535;1281;94323;-65
2022/05/25 06:57:25;;;;;;;0.40;0.10;;;;;;;21.34;64.03;99985.30;103914;1280;139221;-65
2022/05/25 06:59:54;;;;;;;0.40;0.10;;;;;;;21.39;63.96;99990.38;103278;1281;108631;-65
2022/05/25 07:02:24;;;;;;;0.40;0.10;;;;;;;21.39;63.54;99995.36;103356;1281;138172;-63
2022/05/25 07:04:53;;;;;;;0.40;0.10;;;;;;;21.26;63.96;99998.70;103285;1281;108861;-64
2022/05/25 07:07:21;;;;;;;0.40;0.10;;;;;;;21.29;63.94;99999.79;103372;1280;94444;-65
2022/05/25 07:09:50;;;;;;;0.40;0.10;;;;;;;21.28;63.50;100000.92;103541;1278;138228;-64
2022/05/25 07:12:20;;;;;;;0.40;0.10;;;;;;;21.24;63.59;100001.95;103315;1281;107924;-66
2022/05/25 07:14:48;;;;;;;0.40;0.10;;;;;;;21.18;63.95;100002.09;103375;1281;138111;-65
2022/05/25 07:17:16;;;;;;;0.40;0.10;;;;;;;21.23;63.77;100006.56;103403;1279;108748;-65
2022/05/25 07:19:44;;;;;;;0.40;0.10;;;;;;;21.29;63.78;100007.35;103292;1280;138997;-65
2022/05/25 07:22:13;;;;;;;0.40;0.10;;;;;;;21.33;63.53;100009.23;103430;1280;94331;-65
2022/05/25 07:24:46;;;;;;;0.40;0.10;;;;;;;21.32;63.71;100010.54;103519;1280;108080;-65
2022/05/25 07:27:15;;;;;;;0.40;0.10;;;;;;;21.34;63.25;100009.11;103291;1280;138498;-64
2022/05/25 07:29:43;;;;;;;0.40;0.10;;;;;;;21.39;63.49;100006.77;103481;1278;108814;-64
2022/05/25 07:32:13;;;;;;;0.40;0.10;;;;;;;21.43;63.34;100002.17;103239;1278;138722;-64
2022/05/25 07:34:50;;;;;;;0.40;0.10;;;;;;;21.42;63.05;100003.13;103666;1277;94687;-64
2022/05/25 07:37:22;;;;;;;0.40;0.10;;;;;;;21.48;63.28;100000.65;103377;1278;108437;-67
2022/05/25 07:40:02;;;;;;;0.40;0.10;;;;;;;21.46;63.42;100000.42;103417;1281;140144;-63
2022/05/25 07:42:32;;;;;;;0.40;0.10;;;;;;;21.53;63.51;99999.02;103474;1279;108830;-65
2022/05/25 07:45:03;;;;;;;0.40;0.10;;;;;;;21.62;63.11;99999.56;103463;1280;138431;-64
2022/05/25 07:47:32;;;;;;;0.40;0.10;;;;;;;21.68;62.87;100001.45;103449;1280;94951;-64
2022/05/25 07:50:01;;;;;;;0.40;0.10;;;;;;;21.69;62.86;100003.90;103167;1281;138589;-64
2022/05/25 07:52:33;;;;;;;0.40;0.10;;;;;;;21.77;62.64;100009.55;103535;1280;99731;-65
2022/05/25 07:55:02;;;;;;;0.40;0.10;;;;;;;21.85;62.33;100012.90;103465;1280;107781;-67
2022/05/25 07:57:30;;;;;;;0.40;0.10;;;;;;;21.79;62.14;100015.05;103270;1280;138212;-66
2022/05/25 07:59:58;;;;;;;0.40;0.10;;;;;;;21.73;62.55;100024.93;103389;1279;94334;-66
2022/05/25 08:08:26;;;;;;;0.40;0.10;;;;;;;21.75;62.68;100029.13;102631;1287;138770;-64
2022/05/25 08:11:04;;;;;;;0.40;0.10;;;;;;;21.75;62.52;100035.40;103262;1279;94840;-64
2022/05/25 08:13:38;;;;;;;0.40;0.10;;;;;;;21.68;62.41;100037.07;103567;1280;94715;-65
2022/05/25 08:16:09;;;;;;;0.40;0.10;;;;;;;21.65;62.58;100038.02;103671;1280;108415;-65
2022/05/25 08:18:38;;;;;;;0.40;0.10;;;;;;;21.53;62.68;100037.45;103449;1279;99309;-63
2022/05/25 08:21:06;;;;;;;0.40;0.10;;;;;;;21.44;63.02;100034.38;103340;1280;138404;-64
2022/05/25 08:23:34;;;;;;;0.40;0.10;;;;;;;21.38;63.29;100032.90;103575;1281;94859;-68
2022/05/25 08:26:03;;;;;;;0.40;0.10;;;;;;;21.32;63.68;100032.91;103307;1281;139135;-65
2022/05/25 08:28:31;;;;;;;0.40;0.10;;;;;;;21.28;63.36;100031.48;103764;1279;108433;-63
2022/05/25 08:31:00;;;;;;;0.40;0.10;;;;;;;21.24;63.54;100032.15;103493;1280;99425;-65
2022/05/25 08:33:29;;;;;;;0.40;0.10;;;;;;;21.17;63.86;100028.69;103482;1280;138349;-66
2022/05/25 08:35:57;;;;;;;0.40;0.10;;;;;;;21.24;63.78;100033.95;103511;1280;94604;-64
2022/05/25 08:38:25;;;;;;;0.40;0.10;;;;;;;21.21;63.84;100032.86;103204;1281;138874;-66
2022/05/25 08:40:53;;;;;;;0.40;0.10;;;;;;;21.19;63.78;100034.48;103416;1281;108215;-65
2022/05/25 08:43:27;;;;;;;0.40;0.10;;;;;;;21.14;63.70;100035.23;103638;1281;98407;-63
2022/05/25 08:46:01;;;;;;;0.40;0.10;;;;;;;21.06;64.12;100032.91;103731;1281;139013;-65
2022/05/25 08:48:31;;;;;;;0.40;0.10;;;;;;;21.01;64.30;100039.81;103478;1281;94818;-64
2022/05/25 08:51:09;;;;;;;0.40;0.10;;;;;;;21.00;64.38;100046.02;103157;1281;138238;-63
2022/05/25 08:53:39;;;;;;;0.40;0.10;;;;;;;20.99;64.34;100050.78;103489;1280;108525;-64
2022/05/25 08:56:22;;;;;;;0.40;0.10;;;;;;;20.98;64.55;100057.36;103406;1280;138740;-64
2022/05/25 08:59:00;;;;;;;0.40;0.10;;;;;;;20.84;64.78;100060.00;103548;1280;109432;-64
2022/05/25 09:01:34;;;;;;;0.40;0.10;;;;;;;20.77;65.21;100062.41;104014;1279;94397;-64
2022/05/25 09:04:27;;;;;;;0.40;0.10;;;;;;;20.74;65.36;100066.96;103314;1279;137707;-63
2022/05/25 09:07:15;;;;;;;0.40;0.10;;;;;;;20.74;65.50;100072.50;103377;1280;107713;-64
2022/05/25 09:09:46;;;;;;;0.40;0.10;;;;;;;20.72;65.39;100081.70;103264;1280;140193;-64
2022/05/25 09:12:40;;;;;;;0.40;0.10;;;;;;;20.75;65.47;100087.76;103575;1280;109006;-65
2022/05/25 09:15:16;;;;;;;0.40;0.10;;;;;;;20.75;65.48;100092.48;103345;1280;138122;-64
2022/05/25 09:17:52;;;;;;;0.40;0.10;;;;;;;20.65;65.38;100088.84;103553;1281;94334;-64
2022/05/25 09:20:25;;;;;;;0.40;0.10;;;;;;;20.54;65.43;100091.59;103491;1279;138774;-65
2022/05/25 09:22:55;;;;;;;0.40;0.10;;;;;;;20.40;65.88;100091.56;103549;1281;99300;-64
2022/05/25 09:25:24;;;;;;;0.40;0.10;;;;;;;20.32;66.06;100091.97;103537;1280;110566;-65
2022/05/25 09:28:07;;;;;;;0.40;0.10;;;;;;;20.26;66.35;100097.20;103262;1280;138509;-62
2022/05/25 09:30:39;;;;;;;0.40;0.10;;;;;;;20.20;66.23;100099.13;103533;1278;94383;-65
2022/05/25 09:33:15;;;;;;;0.40;0.10;;;;;;;20.15;66.33;100103.08;103106;1279;138659;-62
2022/05/25 09:35:51;;;;;;;0.40;0.10;;;;;;;20.06;66.65;100103.90;103613;1280;99390;-64
2022/05/25 09:38:55;;;;;;;0.40;0.10;;;;;;;19.97;66.57;100102.00;103280;1280;138114;-61
2022/05/25 09:41:27;;;;;;;0.40;0.10;;;;;;;19.89;66.80;100099.50;103535;1280;94317;-66
2022/05/25 09:43:58;;;;;;;0.40;0.10;;;;;;;19.94;66.77;100101.64;103198;1280;138876;-64
2022/05/25 09:46:31;;;;;;;0.40;0.10;;;;;;;19.96;66.84;100102.61;103473;1279;108896;-63
2022/05/25 09:49:03;;;;;;;0.40;0.10;;;;;;;19.98;66.87;100093.80;103731;1280;99808;-63
2022/05/25 09:51:41;;;;;;;0.40;0.10;;;;;;;19.91;66.95;100094.16;103348;1277;138313;-64
2022/05/25 09:54:19;;;;;;;0.40;0.10;;;;;;;19.93;67.28;100093.48;103389;1280;95749;-64
2022/05/25 09:56:54;;;;;;;0.40;0.10;;;;;;;19.94;67.11;100092.11;103439;1280;140914;-64
2022/05/25 09:59:34;;;;;;;0.40;0.10;;;;;;;20.07;67.23;100086.36;103395;1280;108529;-63
2022/05/25 10:02:41;;;;;;;0.40;0.10;;;;;;;20.12;67.14;100082.90;103264;1280;138629;-65
2022/05/25 10:05:15;;;;;;;0.40;0.10;;;;;;;20.13;66.92;100082.67;103302;1279;109550;-64
2022/05/25 10:08:08;;;;;;;0.40;0.10;;;;;;;20.15;66.91;100087.20;103358;1280;139186;-64
2022/05/25 10:10:50;;;;;;;0.40;0.10;;;;;;;20.23;66.97;100090.23;103379;1279;94552;-64
2022/05/25 10:13:25;;;;;;;0.40;0.10;;;;;;;20.19;66.66;100088.71;103256;1280;107381;-64
2022/05/25 10:15:53;;;;;;;0.40;0.10;;;;;;;20.11;66.60;100090.03;103639;1279;138379;-62
2022/05/25 10:18:42;;;;;;;0.40;0.10;;;;;;;20.05;66.42;100089.14;103557;1280;108948;-63
2022/05/25 10:21:21;;;;;;;0.40;0.10;;;;;;;20.15;66.27;100088.66;103203;1278;139338;-63
2022/05/25 10:23:49;;;;;;;0.40;0.10;;;;;;;20.22;65.90;100084.52;103420;1279;94257;-64
2022/05/25 10:26:33;;;;;;;0.40;0.10;;;;;;;20.31;65.54;100076.88;103601;1279;138070;-63
2022/05/25 10:36:45;;;;;;;0.40;0.10;;;;;;;20.41;65.42;100074.87;103636;1279;99764;-64
2022/05/25 10:38:29;;;;;;;0.40;0.10;;;;;;;20.20;62.56;100082.90;103363;1280;138639;-64
2022/05/25 10:41:37;;;;;;;0.40;0.10;;;;;;;20.05;62.55;100084.50;103475;1279;108855;-65
2022/05/25 10:44:13;;;;;;;0.40;0.10;;;;;;;19.99;62.99;100087.95;103238;1279;139238;-64
2022/05/25 10:46:51;;;;;;;0.40;0.10;;;;;;;19.99;63.50;100087.10;103297;1279;108797;-64
2022/05/25 10:49:37;;;;;;;0.40;0.10;;;;;;;19.92;63.24;100085.77;103678;1280;94745;-64
2022/05/25 10:52:34;;;;;;;0.40;0.10;;;;;;;19.86;63.72;100085.30;103145;1280;138069;-63
2022/05/25 10:55:05;;;;;;;0.40;0.10;;;;;;;19.90;63.65;100085.70;103381;1281;108672;-63
2022/05/25 10:57:52;;;;;;;0.40;0.10;;;;;;;19.86;62.93;100088.33;103530;1279;139028;-63
2022/05/25 11:00:34;;;;;;;0.40;0.10;;;;;;;19.81;62.17;100085.99;103290;1278;108449;-62
2022/05/25 11:03:26;;;;;;;0.40;0.10;;;;;;;19.68;62.21;100084.84;103279;1280;138085;-64
2022/05/25 11:06:06;;;;;;;0.40;0.10;;;;;;;19.66;62.68;100087.19;103646;1279;94414;-63
2022/05/25 11:08:40;;;;;;;0.40;0.10;;;;;;;19.61;62.84;100098.48;103172;1279;138329;-64
2022/05/25 11:11:24;;;;;;;0.40;0.10;;;;;;;19.45;63.10;100108.09;103565;1279;99374;-63
2022/05/25 11:14:18;;;;;;;0.40;0.10;;;;;;;19.36;63.58;100116.94;103559;1279;138645;-64
2022/05/25 11:16:55;;;;;;;0.40;0.10;;;;;;;19.37;63.48;100121.69;103468;1280;94338;-64
2022/05/25 11:19:47;;;;;;;0.40;0.10;;;;;;;19.31;63.18;100127.31;103314;1281;94627;-64
2022/05/25 11:22:37;;;;;;;0.40;0.10;;;;;;;19.22;63.11;100129.23;103779;1279;108351;-63
2022/05/25 11:25:14;;;;;;;0.40;0.10;;;;;;;19.16;63.29;100127.61;103396;1278;99468;-64
2022/05/25 11:28:07;;;;;;;0.40;0.10;;;;;;;19.22;63.27;100124.73;103255;1279;139947;-64
2022/05/25 11:30:44;;;;;;;0.40;0.10;;;;;;;19.16;62.20;100125.46;103335;1280;94465;-62
2022/05/25 11:33:44;;;;;;;0.40;0.10;;;;;;;19.08;62.98;100127.45;103180;1280;140751;-64
2022/05/25 11:37:03;;;;;;;0.40;0.10;;;;;;;19.04;63.17;100133.08;103206;1280;108363;-63
2022/05/25 11:39:58;;;;;;;0.40;0.10;;;;;;;18.95;62.07;100149.67;103273;1279;138827;-62
2022/05/25 11:42:47;;;;;;;0.40;0.10;;;;;;;18.82;61.45;100154.47;104061;1279;108994;-65
2022/05/25 11:45:55;;;;;;;0.40;0.10;;;;;;;18.69;61.77;100152.95;103339;1280;138767;-64
2022/05/25 11:49:05;;;;;;;0.40;0.10;;;;;;;18.74;62.43;100156.59;103249;1279;95196;-63
2022/05/25 11:51:40;;;;;;;0.40;0.10;;;;;;;18.76;62.83;100162.58;103304;1279;138992;-65
2022/05/25 11:54:42;;;;;;;0.40;0.10;;;;;;;18.69;63.23;100169.89;103581;1279;99706;-65
2022/05/25 11:57:31;;;;;;;0.40;0.10;;;;;;;18.55;63.77;100176.30;103308;1279;138151;-64
2022/05/25 12:00:24;;;;;;;0.40;0.10;;;;;;;18.52;64.60;100167.11;103384;1279;95529;-65
2022/05/25 12:03:35;;;;;;;0.40;0.10;;;;;;;18.48;64.92;100163.65;103183;1281;138869;-64
2022/05/25 12:06:15;;;;;;;0.40;0.10;;;;;;;18.54;65.47;100163.12;103504;1281;108473;-66
2022/05/25 12:08:58;;;;;;;0.40;0.10;;;;;;;18.54;65.43;100163.09;103527;1281;138634;-65
2022/05/25 12:12:01;;;;;;;0.40;0.10;;;;;;;18.46;65.67;100170.59;103217;1281;108442;-64
2022/05/25 12:15:09;;;;;;;0.40;0.10;;;;;;;18.40;65.85;100179.79;103266;1281;139174;-65
2022/05/25 12:18:08;;;;;;;0.40;0.20;;;;;;;18.38;66.33;100177.94;103486;1281;96505;-64
2022/05/25 12:21:01;;;;;;;0.40;0.10;;;;;;;18.34;66.21;100177.48;103206;1281;139520;-65
2022/05/25 12:23:35;;;;;;;0.40;0.10;;;;;;;18.34;66.50;100176.38;103093;1281;99893;-63
2022/05/25 12:26:14;;;;;;;0.40;0.10;;;;;;;18.40;66.26;100179.80;103190;1281;138761;-64
2022/05/25 12:28:44;;;;;;;0.40;0.10;;;;;;;18.34;65.92;100179.77;103827;1279;96756;-65
2022/05/25 12:31:19;;;;;;;0.40;0.10;;;;;;;18.19;65.26;100183.20;103365;1281;95231;-64